sensor_id;sensor_type;location;lat;lon;timestamp;temperature;humidity
3330;DHT22;1677;49.576;10.990;2023-04-03T00:01:30;5.10;99.90
3330;DHT22;1677;49.576;10.990;2023-04-03T00:03:56;4.90;99.90
3330;DHT22;1677;49.576;10.990;2023-04-03T00:06:23;4.70;99.90
3330;DHT22;1677;49.576;10.990;2023-04-03T00:08:49;4.80;99.90
3330;DHT22;1677;49.576;10.990;2023-04-03T00:11:15;4.90;99.90
3330;DHT22;1677;49.576;10.990;2023-04-03T00:13:42;4.80;99.90
3330;DHT22;1677;49.576;10.990;2023-04-03T00:16:09;4.60;99.90
3330;DHT22;1677;49.576;10.990;2023-04-03T00:18:36;4.70;99.90
3330;DHT22;1677;49.576;10.990;2023-04-03T00:21:02;4.80;99.90
3330;DHT22;1677;49.576;10.990;2023-04-03T00:23:27;5.00;99.90
3330;DHT22;1677;49.576;10.990;2023-04-03T00:25:53;5.20;99.90
3330;DHT22;1677;49.576;10.990;2023-04-03T00:28:19;5.20;99.90
3330;DHT22;1677;49.576;10.990;2023-04-03T00:30:45;5.30;99.90
3330;DHT22;1677;49.576;10.990;2023-04-03T00:33:12;5.20;99.90
3330;DHT22;1677;49.576;10.990;2023-04-03T00:35:38;5.10;99.90
3330;DHT22;1677;49.576;10.990;2023-04-03T00:38:04;5.10;99.90
3330;DHT22;1677;49.576;10.990;2023-04-03T00:40:37;4.90;99.90
3330;DHT22;1677;49.576;10.990;2023-04-03T00:45:40;4.90;99.90
3330;DHT22;1677;49.576;10.990;2023-04-03T00:48:09;4.90;99.90
3330;DHT22;1677;49.576;10.990;2023-04-03T00:50:39;4.90;99.90
3330;DHT22;1677;49.576;10.990;2023-04-03T00:53:06;4.80;99.90
3330;DHT22;1677;49.576;10.990;2023-04-03T00:55:35;4.80;99.90
3330;DHT22;1677;49.576;10.990;2023-04-03T00:58:01;4.80;99.90
3330;DHT22;1677;49.576;10.990;2023-04-03T01:00:28;4.80;99.90
3330;DHT22;1677;49.576;10.990;2023-04-03T01:02:53;4.80;99.90
3330;DHT22;1677;49.576;10.990;2023-04-03T01:05:29;4.80;99.90
3330;DHT22;1677;49.576;10.990;2023-04-03T01:07:55;4.70;99.90
3330;DHT22;1677;49.576;10.990;2023-04-03T01:10:22;4.70;99.90
3330;DHT22;1677;49.576;10.990;2023-04-03T01:12:49;4.70;99.90
3330;DHT22;1677;49.576;10.990;2023-04-03T01:15:24;4.50;99.90
3330;DHT22;1677;49.576;10.990;2023-04-03T01:17:55;4.40;99.90
3330;DHT22;1677;49.576;10.990;2023-04-03T01:25:29;4.60;99.90
3330;DHT22;1677;49.576;10.990;2023-04-03T01:27:55;4.50;99.90
3330;DHT22;1677;49.576;10.990;2023-04-03T01:30:22;4.30;99.90
3330;DHT22;1677;49.576;10.990;2023-04-03T01:32:50;4.20;99.90
3330;DHT22;1677;49.576;10.990;2023-04-03T01:35:15;4.00;99.90
3330;DHT22;1677;49.576;10.990;2023-04-03T01:37:41;3.80;99.90
3330;DHT22;1677;49.576;10.990;2023-04-03T01:40:07;3.60;99.90
3330;DHT22;1677;49.576;10.990;2023-04-03T01:42:33;3.50;99.90
3330;DHT22;1677;49.576;10.990;2023-04-03T01:44:59;3.40;99.90
3330;DHT22;1677;49.576;10.990;2023-04-03T01:47:24;3.40;99.90
3330;DHT22;1677;49.576;10.990;2023-04-03T01:49:50;3.30;99.90
3330;DHT22;1677;49.576;10.990;2023-04-03T01:52:15;3.50;99.90
3330;DHT22;1677;49.576;10.990;2023-04-03T01:54:41;3.50;99.90
3330;DHT22;1677;49.576;10.990;2023-04-03T01:57:06;3.50;99.90
3330;DHT22;1677;49.576;10.990;2023-04-03T01:59:32;3.40;99.90
3330;DHT22;1677;49.576;10.990;2023-04-03T02:01:57;3.30;99.90
3330;DHT22;1677;49.576;10.990;2023-04-03T02:04:23;3.50;99.90
3330;DHT22;1677;49.576;10.990;2023-04-03T02:06:49;3.50;99.90
3330;DHT22;1677;49.576;10.990;2023-04-03T02:09:14;3.40;99.90
3330;DHT22;1677;49.576;10.990;2023-04-03T02:11:40;3.50;99.90
3330;DHT22;1677;49.576;10.990;2023-04-03T02:14:06;3.80;99.90
3330;DHT22;1677;49.576;10.990;2023-04-03T02:16:32;3.70;99.90
3330;DHT22;1677;49.576;10.990;2023-04-03T02:18:58;3.60;99.90
3330;DHT22;1677;49.576;10.990;2023-04-03T02:21:23;3.60;99.90
3330;DHT22;1677;49.576;10.990;2023-04-03T02:23:49;3.60;99.90
3330;DHT22;1677;49.576;10.990;2023-04-03T02:26:16;3.70;99.90
3330;DHT22;1677;49.576;10.990;2023-04-03T02:28:42;3.50;99.90
3330;DHT22;1677;49.576;10.990;2023-04-03T02:31:08;3.70;99.90
3330;DHT22;1677;49.576;10.990;2023-04-03T02:33:36;4.00;99.90
3330;DHT22;1677;49.576;10.990;2023-04-03T02:36:03;3.80;99.90
3330;DHT22;1677;49.576;10.990;2023-04-03T02:38:30;3.50;99.90
3330;DHT22;1677;49.576;10.990;2023-04-03T02:41:03;3.50;99.90
3330;DHT22;1677;49.576;10.990;2023-04-03T02:43:29;3.70;99.90
3330;DHT22;1677;49.576;10.990;2023-04-03T02:45:55;3.70;99.90
3330;DHT22;1677;49.576;10.990;2023-04-03T02:48:20;3.90;99.90
3330;DHT22;1677;49.576;10.990;2023-04-03T02:50:46;4.00;99.90
3330;DHT22;1677;49.576;10.990;2023-04-03T02:53:11;4.00;99.90
3330;DHT22;1677;49.576;10.990;2023-04-03T02:55:37;4.00;99.90
3330;DHT22;1677;49.576;10.990;2023-04-03T02:58:02;4.00;99.90
3330;DHT22;1677;49.576;10.990;2023-04-03T03:00:29;4.00;99.90
3330;DHT22;1677;49.576;10.990;2023-04-03T03:02:54;4.00;99.90
3330;DHT22;1677;49.576;10.990;2023-04-03T03:05:20;4.00;99.90
3330;DHT22;1677;49.576;10.990;2023-04-03T03:07:45;4.10;99.90
3330;DHT22;1677;49.576;10.990;2023-04-03T03:10:11;4.10;99.90
3330;DHT22;1677;49.576;10.990;2023-04-03T03:12:37;4.00;99.90
3330;DHT22;1677;49.576;10.990;2023-04-03T03:15:02;4.10;99.90
3330;DHT22;1677;49.576;10.990;2023-04-03T03:17:28;4.10;99.90
3330;DHT22;1677;49.576;10.990;2023-04-03T03:19:54;4.10;99.90
3330;DHT22;1677;49.576;10.990;2023-04-03T03:22:19;4.00;99.90
3330;DHT22;1677;49.576;10.990;2023-04-03T03:24:45;4.00;99.90
3330;DHT22;1677;49.576;10.990;2023-04-03T03:27:11;4.00;99.90
3330;DHT22;1677;49.576;10.990;2023-04-03T03:29:37;3.90;99.90
3330;DHT22;1677;49.576;10.990;2023-04-03T03:32:03;3.90;99.90
3330;DHT22;1677;49.576;10.990;2023-04-03T03:34:29;3.90;99.90
3330;DHT22;1677;49.576;10.990;2023-04-03T03:36:54;3.90;99.90
3330;DHT22;1677;49.576;10.990;2023-04-03T03:39:20;3.90;99.90
3330;DHT22;1677;49.576;10.990;2023-04-03T03:41:46;4.00;99.90
3330;DHT22;1677;49.576;10.990;2023-04-03T03:44:12;3.90;99.90
3330;DHT22;1677;49.576;10.990;2023-04-03T03:46:38;4.00;99.90
3330;DHT22;1677;49.576;10.990;2023-04-03T03:49:03;4.10;99.90
3330;DHT22;1677;49.576;10.990;2023-04-03T03:51:29;4.00;99.90
3330;DHT22;1677;49.576;10.990;2023-04-03T03:53:55;4.00;99.90
3330;DHT22;1677;49.576;10.990;2023-04-03T03:56:20;4.10;99.90
3330;DHT22;1677;49.576;10.990;2023-04-03T03:58:46;4.00;99.90
3330;DHT22;1677;49.576;10.990;2023-04-03T04:01:43;4.00;99.90
3330;DHT22;1677;49.576;10.990;2023-04-03T04:04:08;3.90;99.90
3330;DHT22;1677;49.576;10.990;2023-04-03T04:06:33;3.90;99.90
3330;DHT22;1677;49.576;10.990;2023-04-03T04:08:59;3.90;99.90
3330;DHT22;1677;49.576;10.990;2023-04-03T04:11:25;3.90;99.90
3330;DHT22;1677;49.576;10.990;2023-04-03T04:13:53;4.00;99.90
3330;DHT22;1677;49.576;10.990;2023-04-03T04:16:18;3.80;99.90
3330;DHT22;1677;49.576;10.990;2023-04-03T04:18:44;3.80;99.90
3330;DHT22;1677;49.576;10.990;2023-04-03T04:21:09;3.70;99.90
3330;DHT22;1677;49.576;10.990;2023-04-03T04:23:35;3.70;99.90
3330;DHT22;1677;49.576;10.990;2023-04-03T04:26:00;3.70;99.90
3330;DHT22;1677;49.576;10.990;2023-04-03T04:28:26;3.80;99.90
3330;DHT22;1677;49.576;10.990;2023-04-03T04:30:51;3.70;99.90
3330;DHT22;1677;49.576;10.990;2023-04-03T04:33:17;3.60;99.90
3330;DHT22;1677;49.576;10.990;2023-04-03T04:35:43;3.60;99.90
3330;DHT22;1677;49.576;10.990;2023-04-03T04:38:09;3.40;99.90
3330;DHT22;1677;49.576;10.990;2023-04-03T04:40:34;3.40;99.90
3330;DHT22;1677;49.576;10.990;2023-04-03T04:43:00;3.50;99.90
3330;DHT22;1677;49.576;10.990;2023-04-03T04:45:26;3.50;99.90
3330;DHT22;1677;49.576;10.990;2023-04-03T04:47:53;3.60;99.90
3330;DHT22;1677;49.576;10.990;2023-04-03T04:50:20;3.40;99.90
3330;DHT22;1677;49.576;10.990;2023-04-03T04:52:45;3.30;99.90
3330;DHT22;1677;49.576;10.990;2023-04-03T04:55:11;3.20;99.90
3330;DHT22;1677;49.576;10.990;2023-04-03T04:57:36;3.10;99.90
3330;DHT22;1677;49.576;10.990;2023-04-03T05:00:04;3.30;99.90
3330;DHT22;1677;49.576;10.990;2023-04-03T05:02:30;3.20;99.90
3330;DHT22;1677;49.576;10.990;2023-04-03T05:04:56;3.50;99.90
3330;DHT22;1677;49.576;10.990;2023-04-03T05:07:22;3.20;99.90
3330;DHT22;1677;49.576;10.990;2023-04-03T05:09:48;3.20;99.90
3330;DHT22;1677;49.576;10.990;2023-04-03T05:12:13;3.30;99.90
3330;DHT22;1677;49.576;10.990;2023-04-03T05:14:39;3.30;99.90
3330;DHT22;1677;49.576;10.990;2023-04-03T05:17:04;3.30;99.90
3330;DHT22;1677;49.576;10.990;2023-04-03T05:19:30;3.20;99.90
3330;DHT22;1677;49.576;10.990;2023-04-03T05:21:56;3.00;99.90
3330;DHT22;1677;49.576;10.990;2023-04-03T05:24:21;3.00;99.90
3330;DHT22;1677;49.576;10.990;2023-04-03T05:26:47;2.90;99.90
3330;DHT22;1677;49.576;10.990;2023-04-03T05:29:12;2.90;99.90
3330;DHT22;1677;49.576;10.990;2023-04-03T05:31:38;2.90;99.90
3330;DHT22;1677;49.576;10.990;2023-04-03T05:34:03;2.90;99.90
3330;DHT22;1677;49.576;10.990;2023-04-03T05:36:29;3.10;99.90
3330;DHT22;1677;49.576;10.990;2023-04-03T05:38:55;3.00;99.90
3330;DHT22;1677;49.576;10.990;2023-04-03T05:41:21;3.10;99.90
3330;DHT22;1677;49.576;10.990;2023-04-03T05:43:47;3.10;99.90
3330;DHT22;1677;49.576;10.990;2023-04-03T05:46:15;3.40;99.90
3330;DHT22;1677;49.576;10.990;2023-04-03T05:48:42;3.50;99.90
3330;DHT22;1677;49.576;10.990;2023-04-03T05:51:23;3.70;99.90
3330;DHT22;1677;49.576;10.990;2023-04-03T05:53:56;3.60;99.90
3330;DHT22;1677;49.576;10.990;2023-04-03T05:56:24;3.60;99.90
3330;DHT22;1677;49.576;10.990;2023-04-03T05:58:49;3.70;99.90
3330;DHT22;1677;49.576;10.990;2023-04-03T06:01:15;3.70;99.90
3330;DHT22;1677;49.576;10.990;2023-04-03T06:03:41;3.60;99.90
3330;DHT22;1677;49.576;10.990;2023-04-03T06:06:07;3.70;99.90
3330;DHT22;1677;49.576;10.990;2023-04-03T06:08:33;3.70;99.90
3330;DHT22;1677;49.576;10.990;2023-04-03T06:10:59;3.70;99.90
3330;DHT22;1677;49.576;10.990;2023-04-03T06:13:24;3.70;99.90
3330;DHT22;1677;49.576;10.990;2023-04-03T06:15:50;3.80;99.90
3330;DHT22;1677;49.576;10.990;2023-04-03T06:18:16;4.10;99.90
3330;DHT22;1677;49.576;10.990;2023-04-03T06:20:41;4.30;99.90
3330;DHT22;1677;49.576;10.990;2023-04-03T06:23:07;4.20;99.90
3330;DHT22;1677;49.576;10.990;2023-04-03T06:25:32;4.30;99.90
3330;DHT22;1677;49.576;10.990;2023-04-03T06:27:58;4.50;99.90
3330;DHT22;1677;49.576;10.990;2023-04-03T06:30:24;4.50;99.90
3330;DHT22;1677;49.576;10.990;2023-04-03T06:32:50;4.60;99.90
3330;DHT22;1677;49.576;10.990;2023-04-03T06:35:16;4.60;99.90
3330;DHT22;1677;49.576;10.990;2023-04-03T06:37:42;4.70;99.90
3330;DHT22;1677;49.576;10.990;2023-04-03T06:40:18;4.80;99.90
3330;DHT22;1677;49.576;10.990;2023-04-03T06:42:46;4.90;99.90
3330;DHT22;1677;49.576;10.990;2023-04-03T06:45:11;4.80;99.90
3330;DHT22;1677;49.576;10.990;2023-04-03T06:47:37;4.80;99.90
3330;DHT22;1677;49.576;10.990;2023-04-03T06:50:03;4.70;99.90
3330;DHT22;1677;49.576;10.990;2023-04-03T06:52:28;4.80;99.90
3330;DHT22;1677;49.576;10.990;2023-04-03T06:54:54;4.80;99.90
3330;DHT22;1677;49.576;10.990;2023-04-03T06:57:23;4.80;99.90
3330;DHT22;1677;49.576;10.990;2023-04-03T06:59:49;4.80;99.90
3330;DHT22;1677;49.576;10.990;2023-04-03T07:02:15;4.80;99.90
3330;DHT22;1677;49.576;10.990;2023-04-03T07:04:41;5.10;99.90
3330;DHT22;1677;49.576;10.990;2023-04-03T07:07:06;5.20;99.90
3330;DHT22;1677;49.576;10.990;2023-04-03T07:09:32;5.30;99.90
3330;DHT22;1677;49.576;10.990;2023-04-03T07:11:58;5.30;99.90
3330;DHT22;1677;49.576;10.990;2023-04-03T07:14:23;5.10;99.90
3330;DHT22;1677;49.576;10.990;2023-04-03T07:16:49;5.30;99.90
3330;DHT22;1677;49.576;10.990;2023-04-03T07:19:15;5.30;99.90
3330;DHT22;1677;49.576;10.990;2023-04-03T07:21:43;5.20;99.90
3330;DHT22;1677;49.576;10.990;2023-04-03T07:24:09;5.40;99.90
3330;DHT22;1677;49.576;10.990;2023-04-03T07:26:34;5.60;99.90
3330;DHT22;1677;49.576;10.990;2023-04-03T07:29:00;5.80;99.90
3330;DHT22;1677;49.576;10.990;2023-04-03T07:31:26;6.10;99.90
3330;DHT22;1677;49.576;10.990;2023-04-03T07:33:51;6.50;99.90
3330;DHT22;1677;49.576;10.990;2023-04-03T07:36:20;6.60;99.90
3330;DHT22;1677;49.576;10.990;2023-04-03T07:38:46;7.00;99.90
3330;DHT22;1677;49.576;10.990;2023-04-03T07:41:15;7.00;99.90
3330;DHT22;1677;49.576;10.990;2023-04-03T07:43:43;6.90;99.90
3330;DHT22;1677;49.576;10.990;2023-04-03T07:46:08;6.80;99.90
3330;DHT22;1677;49.576;10.990;2023-04-03T07:48:35;7.00;99.90
3330;DHT22;1677;49.576;10.990;2023-04-03T07:51:01;7.10;99.90
3330;DHT22;1677;49.576;10.990;2023-04-03T07:53:28;7.00;99.90
3330;DHT22;1677;49.576;10.990;2023-04-03T07:55:54;7.00;99.90
3330;DHT22;1677;49.576;10.990;2023-04-03T07:58:21;7.10;99.90
3330;DHT22;1677;49.576;10.990;2023-04-03T08:00:47;7.30;99.90
3330;DHT22;1677;49.576;10.990;2023-04-03T08:03:14;7.40;99.90
3330;DHT22;1677;49.576;10.990;2023-04-03T08:05:43;7.50;99.90
3330;DHT22;1677;49.576;10.990;2023-04-03T08:08:11;7.60;99.90
3330;DHT22;1677;49.576;10.990;2023-04-03T08:10:37;7.70;99.90
3330;DHT22;1677;49.576;10.990;2023-04-03T08:13:03;7.80;99.90
3330;DHT22;1677;49.576;10.990;2023-04-03T08:15:30;7.80;99.90
3330;DHT22;1677;49.576;10.990;2023-04-03T08:17:56;7.90;99.90
3330;DHT22;1677;49.576;10.990;2023-04-03T08:20:21;8.60;99.90
3330;DHT22;1677;49.576;10.990;2023-04-03T08:22:47;9.60;97.90
3330;DHT22;1677;49.576;10.990;2023-04-03T08:25:13;10.60;96.20
3330;DHT22;1677;49.576;10.990;2023-04-03T08:27:39;12.10;93.90
3330;DHT22;1677;49.576;10.990;2023-04-03T08:30:05;12.90;88.80
3330;DHT22;1677;49.576;10.990;2023-04-03T08:32:33;12.60;83.70
3330;DHT22;1677;49.576;10.990;2023-04-03T08:34:58;13.00;82.90
3330;DHT22;1677;49.576;10.990;2023-04-03T08:37:24;15.40;76.10
3330;DHT22;1677;49.576;10.990;2023-04-03T08:39:50;17.50;67.20
3330;DHT22;1677;49.576;10.990;2023-04-03T08:45:06;18.30;56.10
3330;DHT22;1677;49.576;10.990;2023-04-03T08:47:55;19.20;48.80
3330;DHT22;1677;49.576;10.990;2023-04-03T08:50:45;20.40;48.70
3330;DHT22;1677;49.576;10.990;2023-04-03T08:53:25;20.70;43.50
3330;DHT22;1677;49.576;10.990;2023-04-03T08:55:53;19.60;40.70
3330;DHT22;1677;49.576;10.990;2023-04-03T08:58:26;18.90;40.70
3330;DHT22;1677;49.576;10.990;2023-04-03T09:00:59;16.00;43.30
3330;DHT22;1677;49.576;10.990;2023-04-03T09:03:31;16.50;46.80
3330;DHT22;1677;49.576;10.990;2023-04-03T09:06:19;18.90;42.30
3330;DHT22;1677;49.576;10.990;2023-04-03T09:09:13;20.40;38.10
3330;DHT22;1677;49.576;10.990;2023-04-03T09:14:38;17.10;40.40
3330;DHT22;1677;49.576;10.990;2023-04-03T09:17:15;16.20;40.90
3330;DHT22;1677;49.576;10.990;2023-04-03T09:20:01;15.70;43.70
3330;DHT22;1677;49.576;10.990;2023-04-03T09:22:32;16.20;42.20
3330;DHT22;1677;49.576;10.990;2023-04-03T09:25:25;16.70;42.20
3330;DHT22;1677;49.576;10.990;2023-04-03T09:27:52;15.90;38.30
3330;DHT22;1677;49.576;10.990;2023-04-03T09:30:21;14.10;41.10
3330;DHT22;1677;49.576;10.990;2023-04-03T09:32:50;13.00;44.80
3330;DHT22;1677;49.576;10.990;2023-04-03T09:35:33;11.80;45.50
3330;DHT22;1677;49.576;10.990;2023-04-03T09:38:02;10.60;48.90
3330;DHT22;1677;49.576;10.990;2023-04-03T09:40:44;9.70;52.60
3330;DHT22;1677;49.576;10.990;2023-04-03T09:45:43;10.60;54.00
3330;DHT22;1677;49.576;10.990;2023-04-03T09:48:19;10.50;51.60
3330;DHT22;1677;49.576;10.990;2023-04-03T09:53:29;10.10;53.30
3330;DHT22;1677;49.576;10.990;2023-04-03T09:55:55;9.80;54.10
3330;DHT22;1677;49.576;10.990;2023-04-03T10:00:56;9.60;55.60
3330;DHT22;1677;49.576;10.990;2023-04-03T10:03:31;9.80;54.70
3330;DHT22;1677;49.576;10.990;2023-04-03T10:05:58;10.00;54.40
3330;DHT22;1677;49.576;10.990;2023-04-03T10:08:25;10.50;54.40
3330;DHT22;1677;49.576;10.990;2023-04-03T10:11:17;11.20;52.40
3330;DHT22;1677;49.576;10.990;2023-04-03T10:13:57;11.60;52.80
3330;DHT22;1677;49.576;10.990;2023-04-03T10:16:50;12.20;52.20
3330;DHT22;1677;49.576;10.990;2023-04-03T10:31:02;18.10;38.90
3330;DHT22;1677;49.576;10.990;2023-04-03T10:36:31;16.20;38.50
3330;DHT22;1677;49.576;10.990;2023-04-03T10:42:03;14.40;42.70
3330;DHT22;1677;49.576;10.990;2023-04-03T10:47:17;11.10;43.30
3330;DHT22;1677;49.576;10.990;2023-04-03T10:55:29;16.40;41.50
3330;DHT22;1677;49.576;10.990;2023-04-03T10:57:57;16.70;38.90
3330;DHT22;1677;49.576;10.990;2023-04-03T11:00:41;15.40;38.00
3330;DHT22;1677;49.576;10.990;2023-04-03T11:03:38;13.00;40.30
3330;DHT22;1677;49.576;10.990;2023-04-03T11:06:08;12.30;42.90
3330;DHT22;1677;49.576;10.990;2023-04-03T11:08:50;14.10;43.90
3330;DHT22;1677;49.576;10.990;2023-04-03T11:11:24;16.10;38.60
3330;DHT22;1677;49.576;10.990;2023-04-03T11:14:17;16.90;39.60
3330;DHT22;1677;49.576;10.990;2023-04-03T11:16:48;19.10;39.90
3330;DHT22;1677;49.576;10.990;2023-04-03T11:19:20;19.90;35.70
3330;DHT22;1677;49.576;10.990;2023-04-03T11:24:39;20.50;32.20
3330;DHT22;1677;49.576;10.990;2023-04-03T11:27:15;17.90;31.40
3330;DHT22;1677;49.576;10.990;2023-04-03T11:29:43;14.70;34.40
3330;DHT22;1677;49.576;10.990;2023-04-03T11:34:57;13.70;43.40
3330;DHT22;1677;49.576;10.990;2023-04-03T11:37:38;16.80;39.20
3330;DHT22;1677;49.576;10.990;2023-04-03T11:40:07;19.40;36.50
3330;DHT22;1677;49.576;10.990;2023-04-03T11:42:40;20.80;31.70
3330;DHT22;1677;49.576;10.990;2023-04-03T11:50:48;16.90;32.00
3330;DHT22;1677;49.576;10.990;2023-04-03T11:55:52;17.00;33.50
3330;DHT22;1677;49.576;10.990;2023-04-03T11:58:19;16.90;33.20
3330;DHT22;1677;49.576;10.990;2023-04-03T12:16:20;14.10;38.60
3330;DHT22;1677;49.576;10.990;2023-04-03T12:26:36;13.70;43.30
3330;DHT22;1677;49.576;10.990;2023-04-03T12:35:09;13.90;41.10
3330;DHT22;1677;49.576;10.990;2023-04-03T12:37:56;13.70;41.00
3330;DHT22;1677;49.576;10.990;2023-04-03T12:40:43;12.90;39.20
3330;DHT22;1677;49.576;10.990;2023-04-03T12:43:18;12.10;42.20
3330;DHT22;1677;49.576;10.990;2023-04-03T12:48:37;12.00;45.80
3330;DHT22;1677;49.576;10.990;2023-04-03T12:51:04;12.40;46.50
3330;DHT22;1677;49.576;10.990;2023-04-03T12:53:37;12.80;44.20
3330;DHT22;1677;49.576;10.990;2023-04-03T12:56:28;13.10;42.90
3330;DHT22;1677;49.576;10.990;2023-04-03T12:58:56;13.00;42.00
3330;DHT22;1677;49.576;10.990;2023-04-03T13:01:37;13.00;41.60
3330;DHT22;1677;49.576;10.990;2023-04-03T13:04:03;12.70;44.00
3330;DHT22;1677;49.576;10.990;2023-04-03T13:06:40;12.50;43.30
3330;DHT22;1677;49.576;10.990;2023-04-03T13:09:21;12.50;44.60
3330;DHT22;1677;49.576;10.990;2023-04-03T13:11:56;12.00;42.90
3330;DHT22;1677;49.576;10.990;2023-04-03T13:14:25;11.40;44.20
3330;DHT22;1677;49.576;10.990;2023-04-03T13:16:55;11.30;43.80
3330;DHT22;1677;49.576;10.990;2023-04-03T13:19:24;11.80;44.70
3330;DHT22;1677;49.576;10.990;2023-04-03T13:22:02;12.10;45.30
3330;DHT22;1677;49.576;10.990;2023-04-03T13:24:30;11.90;42.90
3330;DHT22;1677;49.576;10.990;2023-04-03T13:26:58;11.60;44.00
3330;DHT22;1677;49.576;10.990;2023-04-03T13:29:30;11.60;45.50
3330;DHT22;1677;49.576;10.990;2023-04-03T13:31:57;11.60;45.80
3330;DHT22;1677;49.576;10.990;2023-04-03T13:34:25;11.50;45.90
3330;DHT22;1677;49.576;10.990;2023-04-03T13:39:23;11.70;46.10
3330;DHT22;1677;49.576;10.990;2023-04-03T13:41:52;12.20;43.90
3330;DHT22;1677;49.576;10.990;2023-04-03T13:46:53;12.00;43.70
3330;DHT22;1677;49.576;10.990;2023-04-03T13:49:20;11.90;44.80
3330;DHT22;1677;49.576;10.990;2023-04-03T13:51:45;11.70;45.10
3330;DHT22;1677;49.576;10.990;2023-04-03T13:54:28;11.60;43.40
3330;DHT22;1677;49.576;10.990;2023-04-03T13:56:57;11.40;45.20
3330;DHT22;1677;49.576;10.990;2023-04-03T13:59:29;11.30;45.00
3330;DHT22;1677;49.576;10.990;2023-04-03T14:07:13;11.70;44.60
3330;DHT22;1677;49.576;10.990;2023-04-03T14:09:38;11.90;44.10
3330;DHT22;1677;49.576;10.990;2023-04-03T14:12:08;12.20;47.40
3330;DHT22;1677;49.576;10.990;2023-04-03T14:14:36;12.00;44.90
3330;DHT22;1677;49.576;10.990;2023-04-03T14:17:10;11.60;42.20
3330;DHT22;1677;49.576;10.990;2023-04-03T14:19:38;11.40;43.60
3330;DHT22;1677;49.576;10.990;2023-04-03T14:22:25;11.10;44.60
3330;DHT22;1677;49.576;10.990;2023-04-03T14:24:51;11.10;46.30
3330;DHT22;1677;49.576;10.990;2023-04-03T14:27:21;11.30;47.80
3330;DHT22;1677;49.576;10.990;2023-04-03T14:29:48;11.60;47.90
3330;DHT22;1677;49.576;10.990;2023-04-03T14:32:15;11.20;44.30
3330;DHT22;1677;49.576;10.990;2023-04-03T14:34:42;10.70;44.00
3330;DHT22;1677;49.576;10.990;2023-04-03T14:37:21;10.70;46.00
3330;DHT22;1677;49.576;10.990;2023-04-03T14:39:48;10.50;44.20
3330;DHT22;1677;49.576;10.990;2023-04-03T14:42:16;10.20;44.90
3330;DHT22;1677;49.576;10.990;2023-04-03T14:44:42;10.30;45.90
3330;DHT22;1677;49.576;10.990;2023-04-03T14:47:12;10.40;48.10
3330;DHT22;1677;49.576;10.990;2023-04-03T14:49:39;10.50;47.50
3330;DHT22;1677;49.576;10.990;2023-04-03T14:52:06;10.30;44.40
3330;DHT22;1677;49.576;10.990;2023-04-03T14:54:32;10.00;46.00
3330;DHT22;1677;49.576;10.990;2023-04-03T14:56:59;9.50;47.10
3330;DHT22;1677;49.576;10.990;2023-04-03T14:59:25;9.20;46.30
3330;DHT22;1677;49.576;10.990;2023-04-03T15:01:51;9.30;48.70
3330;DHT22;1677;49.576;10.990;2023-04-03T15:04:19;9.40;48.20
3330;DHT22;1677;49.576;10.990;2023-04-03T15:06:47;9.50;47.20
3330;DHT22;1677;49.576;10.990;2023-04-03T15:09:25;9.50;46.10
3330;DHT22;1677;49.576;10.990;2023-04-03T15:11:52;9.60;47.60
3330;DHT22;1677;49.576;10.990;2023-04-03T15:14:18;9.60;47.30
3330;DHT22;1677;49.576;10.990;2023-04-03T15:16:44;9.50;46.70
3330;DHT22;1677;49.576;10.990;2023-04-03T15:19:10;9.60;48.10
3330;DHT22;1677;49.576;10.990;2023-04-03T15:21:36;9.50;47.70
3330;DHT22;1677;49.576;10.990;2023-04-03T15:24:02;9.20;46.80
3330;DHT22;1677;49.576;10.990;2023-04-03T15:26:28;9.30;49.60
3330;DHT22;1677;49.576;10.990;2023-04-03T15:28:54;9.30;49.40
3330;DHT22;1677;49.576;10.990;2023-04-03T15:31:19;9.40;48.80
3330;DHT22;1677;49.576;10.990;2023-04-03T15:33:45;9.40;49.10
3330;DHT22;1677;49.576;10.990;2023-04-03T15:36:10;9.30;47.40
3330;DHT22;1677;49.576;10.990;2023-04-03T15:38:36;9.30;48.10
3330;DHT22;1677;49.576;10.990;2023-04-03T15:41:03;9.00;47.60
3330;DHT22;1677;49.576;10.990;2023-04-03T15:43:29;8.90;47.90
3330;DHT22;1677;49.576;10.990;2023-04-03T15:45:57;9.00;48.40
3330;DHT22;1677;49.576;10.990;2023-04-03T15:48:24;8.90;48.20
3330;DHT22;1677;49.576;10.990;2023-04-03T15:50:49;8.80;48.20
3330;DHT22;1677;49.576;10.990;2023-04-03T15:53:15;8.70;47.70
3330;DHT22;1677;49.576;10.990;2023-04-03T15:55:42;8.50;47.50
3330;DHT22;1677;49.576;10.990;2023-04-03T15:58:08;8.30;47.90
3330;DHT22;1677;49.576;10.990;2023-04-03T16:00:35;8.30;48.20
3330;DHT22;1677;49.576;10.990;2023-04-03T16:03:05;8.00;47.30
3330;DHT22;1677;49.576;10.990;2023-04-03T16:05:31;7.90;48.20
3330;DHT22;1677;49.576;10.990;2023-04-03T16:07:58;7.90;48.40
3330;DHT22;1677;49.576;10.990;2023-04-03T16:10:25;7.80;48.40
3330;DHT22;1677;49.576;10.990;2023-04-03T16:12:51;7.80;48.70
3330;DHT22;1677;49.576;10.990;2023-04-03T16:15:17;7.70;49.20
3330;DHT22;1677;49.576;10.990;2023-04-03T16:17:42;7.70;48.40
3330;DHT22;1677;49.576;10.990;2023-04-03T16:20:10;7.60;48.70
3330;DHT22;1677;49.576;10.990;2023-04-03T16:22:36;7.60;48.30
3330;DHT22;1677;49.576;10.990;2023-04-03T16:25:03;7.50;48.80
3330;DHT22;1677;49.576;10.990;2023-04-03T16:27:28;7.40;49.10
3330;DHT22;1677;49.576;10.990;2023-04-03T16:29:56;7.40;49.40
3330;DHT22;1677;49.576;10.990;2023-04-03T16:32:23;7.30;49.00
3330;DHT22;1677;49.576;10.990;2023-04-03T16:34:50;7.30;50.80
3330;DHT22;1677;49.576;10.990;2023-04-03T16:37:16;7.40;51.30
3330;DHT22;1677;49.576;10.990;2023-04-03T16:39:42;7.30;50.70
3330;DHT22;1677;49.576;10.990;2023-04-03T16:42:08;7.20;50.90
3330;DHT22;1677;49.576;10.990;2023-04-03T16:44:35;7.00;52.10
3330;DHT22;1677;49.576;10.990;2023-04-03T16:47:01;7.20;51.30
3330;DHT22;1677;49.576;10.990;2023-04-03T16:49:27;7.10;51.80
3330;DHT22;1677;49.576;10.990;2023-04-03T16:51:57;7.00;51.40
3330;DHT22;1677;49.576;10.990;2023-04-03T16:54:23;6.80;51.20
3330;DHT22;1677;49.576;10.990;2023-04-03T16:56:48;6.80;52.30
3330;DHT22;1677;49.576;10.990;2023-04-03T16:59:14;6.80;52.10
3330;DHT22;1677;49.576;10.990;2023-04-03T17:01:40;6.70;53.00
3330;DHT22;1677;49.576;10.990;2023-04-03T17:04:05;6.50;52.90
3330;DHT22;1677;49.576;10.990;2023-04-03T17:06:31;6.50;52.00
3330;DHT22;1677;49.576;10.990;2023-04-03T17:08:57;6.40;52.30
3330;DHT22;1677;49.576;10.990;2023-04-03T17:11:23;6.30;51.90
3330;DHT22;1677;49.576;10.990;2023-04-03T17:13:48;6.10;51.80
3330;DHT22;1677;49.576;10.990;2023-04-03T17:16:15;6.00;52.40
3330;DHT22;1677;49.576;10.990;2023-04-03T17:18:41;6.00;52.90
3330;DHT22;1677;49.576;10.990;2023-04-03T17:21:08;6.00;52.80
3330;DHT22;1677;49.576;10.990;2023-04-03T17:23:34;5.90;52.80
3330;DHT22;1677;49.576;10.990;2023-04-03T17:26:02;5.90;54.90
3330;DHT22;1677;49.576;10.990;2023-04-03T17:28:28;6.00;53.90
3330;DHT22;1677;49.576;10.990;2023-04-03T17:30:55;5.90;52.60
3330;DHT22;1677;49.576;10.990;2023-04-03T17:33:21;5.90;52.50
3330;DHT22;1677;49.576;10.990;2023-04-03T17:35:46;5.70;52.70
3330;DHT22;1677;49.576;10.990;2023-04-03T17:38:12;5.70;53.30
3330;DHT22;1677;49.576;10.990;2023-04-03T17:40:37;5.60;54.10
3330;DHT22;1677;49.576;10.990;2023-04-03T17:43:03;5.40;54.30
3330;DHT22;1677;49.576;10.990;2023-04-03T17:45:28;5.40;54.70
3330;DHT22;1677;49.576;10.990;2023-04-03T17:47:54;5.40;54.50